sensor_id;sensor_type;location;lat;lon;timestamp;P1;durP1;ratioP1;P2;durP2;ratioP2
23682;SDS011;24897;53.514;10.482;2022-08-30T00:00:28;30.73;;;27.53;;
23682;SDS011;24897;53.514;10.482;2022-08-30T00:03:33;29.70;;;26.70;;
23682;SDS011;24897;53.514;10.482;2022-08-30T00:06:21;28.93;;;26.13;;
23682;SDS011;24897;53.514;10.482;2022-08-30T00:09:07;29.43;;;26.53;;
23682;SDS011;24897;53.514;10.482;2022-08-30T00:11:51;30.30;;;27.10;;
23682;SDS011;24897;53.514;10.482;2022-08-30T00:14:35;29.50;;;26.60;;
23682;SDS011;24897;53.514;10.482;2022-08-30T00:17:19;30.30;;;27.10;;
23682;SDS011;24897;53.514;10.482;2022-08-30T00:20:05;28.70;;;26.00;;
23682;SDS011;24897;53.514;10.482;2022-08-30T00:22:51;28.33;;;25.63;;
23682;SDS011;24897;53.514;10.482;2022-08-30T00:25:36;28.10;;;25.30;;
23682;SDS011;24897;53.514;10.482;2022-08-30T00:28:20;28.37;;;25.47;;
23682;SDS011;24897;53.514;10.482;2022-08-30T00:31:05;28.83;;;26.03;;
23682;SDS011;24897;53.514;10.482;2022-08-30T00:33:50;29.73;;;26.80;;
23682;SDS011;24897;53.514;10.482;2022-08-30T00:36:35;29.20;;;26.17;;
23682;SDS011;24897;53.514;10.482;2022-08-30T00:39:20;29.40;;;26.50;;
23682;SDS011;24897;53.514;10.482;2022-08-30T00:42:04;29.93;;;27.03;;
23682;SDS011;24897;53.514;10.482;2022-08-30T00:44:48;30.03;;;27.03;;
23682;SDS011;24897;53.514;10.482;2022-08-30T00:47:33;29.77;;;26.87;;
23682;SDS011;24897;53.514;10.482;2022-08-30T00:50:19;29.43;;;26.43;;
23682;SDS011;24897;53.514;10.482;2022-08-30T00:53:08;30.57;;;27.47;;
23682;SDS011;24897;53.514;10.482;2022-08-30T00:55:56;29.27;;;26.37;;
23682;SDS011;24897;53.514;10.482;2022-08-30T00:58:43;30.00;;;26.70;;
23682;SDS011;24897;53.514;10.482;2022-08-30T01:01:34;29.97;;;26.77;;
23682;SDS011;24897;53.514;10.482;2022-08-30T01:04:20;29.97;;;26.77;;
23682;SDS011;24897;53.514;10.482;2022-08-30T01:07:07;30.67;;;27.60;;
23682;SDS011;24897;53.514;10.482;2022-08-30T01:09:51;29.33;;;26.37;;
23682;SDS011;24897;53.514;10.482;2022-08-30T01:12:36;29.80;;;26.80;;
23682;SDS011;24897;53.514;10.482;2022-08-30T01:15:22;30.37;;;27.37;;
23682;SDS011;24897;53.514;10.482;2022-08-30T01:18:06;29.07;;;26.07;;
23682;SDS011;24897;53.514;10.482;2022-08-30T01:23:53;29.87;;;26.97;;
23682;SDS011;24897;53.514;10.482;2022-08-30T01:26:39;29.47;;;26.60;;
23682;SDS011;24897;53.514;10.482;2022-08-30T01:29:24;28.40;;;25.60;;
23682;SDS011;24897;53.514;10.482;2022-08-30T01:32:14;30.20;;;27.10;;
23682;SDS011;24897;53.514;10.482;2022-08-30T01:35:00;29.73;;;26.73;;
23682;SDS011;24897;53.514;10.482;2022-08-30T01:37:44;30.03;;;26.93;;
23682;SDS011;24897;53.514;10.482;2022-08-30T01:40:30;29.43;;;26.43;;
23682;SDS011;24897;53.514;10.482;2022-08-30T01:43:14;30.40;;;27.40;;
23682;SDS011;24897;53.514;10.482;2022-08-30T01:46:00;29.37;;;26.37;;
23682;SDS011;24897;53.514;10.482;2022-08-30T01:48:45;30.57;;;27.50;;
23682;SDS011;24897;53.514;10.482;2022-08-30T01:51:30;29.67;;;26.70;;
23682;SDS011;24897;53.514;10.482;2022-08-30T01:54:14;29.83;;;26.83;;
23682;SDS011;24897;53.514;10.482;2022-08-30T01:56:59;29.57;;;26.57;;
23682;SDS011;24897;53.514;10.482;2022-08-30T01:59:43;29.37;;;26.07;;
23682;SDS011;24897;53.514;10.482;2022-08-30T02:02:30;28.77;;;25.83;;
23682;SDS011;24897;53.514;10.482;2022-08-30T02:05:14;29.50;;;26.60;;
23682;SDS011;24897;53.514;10.482;2022-08-30T02:07:59;29.30;;;26.47;;
23682;SDS011;24897;53.514;10.482;2022-08-30T02:10:44;29.63;;;26.73;;
23682;SDS011;24897;53.514;10.482;2022-08-30T02:13:28;29.23;;;26.37;;
23682;SDS011;24897;53.514;10.482;2022-08-30T02:16:14;29.93;;;26.93;;
23682;SDS011;24897;53.514;10.482;2022-08-30T02:19:00;29.90;;;26.93;;
23682;SDS011;24897;53.514;10.482;2022-08-30T02:21:45;30.57;;;27.57;;
23682;SDS011;24897;53.514;10.482;2022-08-30T02:24:29;31.07;;;27.87;;
23682;SDS011;24897;53.514;10.482;2022-08-30T02:27:14;29.83;;;26.83;;
23682;SDS011;24897;53.514;10.482;2022-08-30T02:29:58;30.30;;;27.40;;
23682;SDS011;24897;53.514;10.482;2022-08-30T02:32:42;30.97;;;27.97;;
23682;SDS011;24897;53.514;10.482;2022-08-30T02:35:27;30.87;;;27.87;;
23682;SDS011;24897;53.514;10.482;2022-08-30T02:38:11;31.07;;;28.07;;
23682;SDS011;24897;53.514;10.482;2022-08-30T02:40:56;30.00;;;27.10;;
23682;SDS011;24897;53.514;10.482;2022-08-30T02:43:41;29.17;;;26.27;;
23682;SDS011;24897;53.514;10.482;2022-08-30T02:46:25;29.33;;;26.33;;
23682;SDS011;24897;53.514;10.482;2022-08-30T02:49:10;28.53;;;25.63;;
23682;SDS011;24897;53.514;10.482;2022-08-30T02:51:54;28.90;;;25.90;;
23682;SDS011;24897;53.514;10.482;2022-08-30T02:54:38;29.37;;;26.37;;
23682;SDS011;24897;53.514;10.482;2022-08-30T02:57:22;29.87;;;26.70;;
23682;SDS011;24897;53.514;10.482;2022-08-30T03:00:07;29.27;;;26.27;;
23682;SDS011;24897;53.514;10.482;2022-08-30T03:02:53;29.80;;;26.70;;
23682;SDS011;24897;53.514;10.482;2022-08-30T03:05:38;29.43;;;26.60;;
23682;SDS011;24897;53.514;10.482;2022-08-30T03:08:22;29.73;;;26.83;;
23682;SDS011;24897;53.514;10.482;2022-08-30T03:11:06;30.80;;;27.80;;
23682;SDS011;24897;53.514;10.482;2022-08-30T03:13:51;30.80;;;27.80;;
23682;SDS011;24897;53.514;10.482;2022-08-30T03:16:35;30.33;;;27.33;;
23682;SDS011;24897;53.514;10.482;2022-08-30T03:19:20;29.93;;;27.03;;
23682;SDS011;24897;53.514;10.482;2022-08-30T03:22:04;29.97;;;26.97;;
23682;SDS011;24897;53.514;10.482;2022-08-30T03:24:49;30.77;;;27.67;;
23682;SDS011;24897;53.514;10.482;2022-08-30T03:27:34;30.90;;;27.80;;
23682;SDS011;24897;53.514;10.482;2022-08-30T03:30:19;30.00;;;27.10;;
23682;SDS011;24897;53.514;10.482;2022-08-30T03:33:03;30.77;;;27.73;;
23682;SDS011;24897;53.514;10.482;2022-08-30T03:35:47;30.57;;;27.37;;
23682;SDS011;24897;53.514;10.482;2022-08-30T03:38:32;30.53;;;27.43;;
23682;SDS011;24897;53.514;10.482;2022-08-30T03:41:17;31.43;;;28.40;;
23682;SDS011;24897;53.514;10.482;2022-08-30T03:44:01;29.60;;;26.70;;
23682;SDS011;24897;53.514;10.482;2022-08-30T03:46:46;29.23;;;26.23;;
23682;SDS011;24897;53.514;10.482;2022-08-30T03:49:31;30.73;;;27.73;;
23682;SDS011;24897;53.514;10.482;2022-08-30T03:52:16;30.07;;;26.97;;
23682;SDS011;24897;53.514;10.482;2022-08-30T03:55:00;31.67;;;28.47;;
23682;SDS011;24897;53.514;10.482;2022-08-30T03:57:44;30.00;;;26.73;;
23682;SDS011;24897;53.514;10.482;2022-08-30T04:00:28;30.27;;;27.17;;
23682;SDS011;24897;53.514;10.482;2022-08-30T04:03:13;30.27;;;27.17;;
23682;SDS011;24897;53.514;10.482;2022-08-30T04:05:58;29.93;;;26.83;;
23682;SDS011;24897;53.514;10.482;2022-08-30T04:08:43;29.50;;;26.53;;
23682;SDS011;24897;53.514;10.482;2022-08-30T04:11:28;28.70;;;25.70;;
23682;SDS011;24897;53.514;10.482;2022-08-30T04:14:13;29.07;;;26.07;;
23682;SDS011;24897;53.514;10.482;2022-08-30T04:16:58;29.60;;;26.60;;
23682;SDS011;24897;53.514;10.482;2022-08-30T04:19:43;30.70;;;27.63;;
23682;SDS011;24897;53.514;10.482;2022-08-30T04:22:27;30.53;;;27.43;;
23682;SDS011;24897;53.514;10.482;2022-08-30T04:25:12;31.03;;;27.93;;
23682;SDS011;24897;53.514;10.482;2022-08-30T04:27:57;29.20;;;26.30;;
23682;SDS011;24897;53.514;10.482;2022-08-30T04:30:41;31.27;;;28.07;;
23682;SDS011;24897;53.514;10.482;2022-08-30T04:33:27;30.53;;;27.43;;
23682;SDS011;24897;53.514;10.482;2022-08-30T04:36:11;32.10;;;28.80;;
23682;SDS011;24897;53.514;10.482;2022-08-30T04:38:56;30.50;;;27.43;;
23682;SDS011;24897;53.514;10.482;2022-08-30T04:41:40;31.87;;;28.57;;
23682;SDS011;24897;53.514;10.482;2022-08-30T04:44:24;31.67;;;28.43;;
23682;SDS011;24897;53.514;10.482;2022-08-30T04:47:09;31.20;;;28.10;;
23682;SDS011;24897;53.514;10.482;2022-08-30T04:49:53;30.30;;;27.33;;
23682;SDS011;24897;53.514;10.482;2022-08-30T04:52:38;30.73;;;27.63;;
23682;SDS011;24897;53.514;10.482;2022-08-30T04:55:23;32.10;;;28.80;;
23682;SDS011;24897;53.514;10.482;2022-08-30T04:58:08;31.83;;;28.63;;
23682;SDS011;24897;53.514;10.482;2022-08-30T05:00:53;31.77;;;28.73;;
23682;SDS011;24897;53.514;10.482;2022-08-30T05:03:38;31.33;;;28.23;;
23682;SDS011;24897;53.514;10.482;2022-08-30T05:06:23;30.30;;;27.30;;
23682;SDS011;24897;53.514;10.482;2022-08-30T05:09:09;30.37;;;27.33;;
23682;SDS011;24897;53.514;10.482;2022-08-30T05:11:53;31.63;;;28.63;;
23682;SDS011;24897;53.514;10.482;2022-08-30T05:14:37;30.83;;;27.73;;
23682;SDS011;24897;53.514;10.482;2022-08-30T05:17:22;30.47;;;27.47;;
23682;SDS011;24897;53.514;10.482;2022-08-30T05:20:08;30.50;;;27.60;;
23682;SDS011;24897;53.514;10.482;2022-08-30T05:22:54;31.47;;;28.37;;
23682;SDS011;24897;53.514;10.482;2022-08-30T05:25:39;30.67;;;27.70;;
23682;SDS011;24897;53.514;10.482;2022-08-30T05:28:24;30.67;;;27.80;;
23682;SDS011;24897;53.514;10.482;2022-08-30T05:34:03;30.73;;;27.67;;
23682;SDS011;24897;53.514;10.482;2022-08-30T05:36:48;30.00;;;27.20;;
23682;SDS011;24897;53.514;10.482;2022-08-30T05:39:32;29.47;;;26.67;;
23682;SDS011;24897;53.514;10.482;2022-08-30T05:42:16;30.20;;;27.30;;
23682;SDS011;24897;53.514;10.482;2022-08-30T05:45:01;29.93;;;27.10;;
23682;SDS011;24897;53.514;10.482;2022-08-30T05:47:47;30.17;;;27.17;;
23682;SDS011;24897;53.514;10.482;2022-08-30T05:50:31;30.60;;;27.70;;
23682;SDS011;24897;53.514;10.482;2022-08-30T05:53:15;30.47;;;27.60;;
23682;SDS011;24897;53.514;10.482;2022-08-30T05:56:00;29.57;;;26.77;;
23682;SDS011;24897;53.514;10.482;2022-08-30T05:58:47;31.23;;;28.33;;
23682;SDS011;24897;53.514;10.482;2022-08-30T06:01:36;31.50;;;28.60;;
23682;SDS011;24897;53.514;10.482;2022-08-30T06:04:22;29.77;;;26.83;;
23682;SDS011;24897;53.514;10.482;2022-08-30T06:07:07;29.40;;;26.63;;
23682;SDS011;24897;53.514;10.482;2022-08-30T06:09:51;30.00;;;27.20;;
23682;SDS011;24897;53.514;10.482;2022-08-30T06:12:35;28.93;;;26.43;;
23682;SDS011;24897;53.514;10.482;2022-08-30T06:15:19;30.60;;;27.70;;
23682;SDS011;24897;53.514;10.482;2022-08-30T06:18:03;28.97;;;26.47;;
23682;SDS011;24897;53.514;10.482;2022-08-30T06:20:47;29.10;;;26.53;;
23682;SDS011;24897;53.514;10.482;2022-08-30T06:23:34;31.03;;;28.30;;
23682;SDS011;24897;53.514;10.482;2022-08-30T06:26:18;29.63;;;27.13;;
23682;SDS011;24897;53.514;10.482;2022-08-30T06:29:03;29.97;;;27.33;;
23682;SDS011;24897;53.514;10.482;2022-08-30T06:31:47;30.47;;;27.77;;
23682;SDS011;24897;53.514;10.482;2022-08-30T06:34:32;29.23;;;26.53;;
23682;SDS011;24897;53.514;10.482;2022-08-30T06:37:17;30.60;;;27.90;;
23682;SDS011;24897;53.514;10.482;2022-08-30T06:40:01;28.73;;;26.13;;
23682;SDS011;24897;53.514;10.482;2022-08-30T06:42:46;30.53;;;27.57;;
23682;SDS011;24897;53.514;10.482;2022-08-30T06:45:32;30.20;;;27.50;;
23682;SDS011;24897;53.514;10.482;2022-08-30T06:48:17;29.17;;;26.57;;
23682;SDS011;24897;53.514;10.482;2022-08-30T06:51:01;28.87;;;26.37;;
23682;SDS011;24897;53.514;10.482;2022-08-30T06:53:46;28.57;;;26.00;;
23682;SDS011;24897;53.514;10.482;2022-08-30T06:56:31;28.30;;;25.90;;
23682;SDS011;24897;53.514;10.482;2022-08-30T06:59:15;28.13;;;25.53;;
23682;SDS011;24897;53.514;10.482;2022-08-30T07:02:00;25.83;;;23.70;;
23682;SDS011;24897;53.514;10.482;2022-08-30T07:04:45;26.17;;;23.87;;
23682;SDS011;24897;53.514;10.482;2022-08-30T07:07:31;25.27;;;23.03;;
23682;SDS011;24897;53.514;10.482;2022-08-30T07:10:15;23.97;;;21.83;;
23682;SDS011;24897;53.514;10.482;2022-08-30T07:13:00;23.00;;;21.00;;
23682;SDS011;24897;53.514;10.482;2022-08-30T07:15:44;22.70;;;20.80;;
23682;SDS011;24897;53.514;10.482;2022-08-30T07:18:29;22.53;;;20.53;;
23682;SDS011;24897;53.514;10.482;2022-08-30T07:21:34;21.60;;;19.80;;
23682;SDS011;24897;53.514;10.482;2022-08-30T07:24:20;21.53;;;19.73;;
23682;SDS011;24897;53.514;10.482;2022-08-30T07:27:04;22.40;;;20.60;;
23682;SDS011;24897;53.514;10.482;2022-08-30T07:29:49;22.30;;;20.40;;
23682;SDS011;24897;53.514;10.482;2022-08-30T07:32:34;22.90;;;21.03;;
23682;SDS011;24897;53.514;10.482;2022-08-30T07:35:20;22.30;;;20.40;;
23682;SDS011;24897;53.514;10.482;2022-08-30T07:38:04;22.27;;;20.47;;
23682;SDS011;24897;53.514;10.482;2022-08-30T07:40:48;22.80;;;20.90;;
23682;SDS011;24897;53.514;10.482;2022-08-30T07:43:33;23.30;;;21.10;;
23682;SDS011;24897;53.514;10.482;2022-08-30T07:46:18;22.30;;;20.40;;
23682;SDS011;24897;53.514;10.482;2022-08-30T07:49:03;21.97;;;19.93;;
23682;SDS011;24897;53.514;10.482;2022-08-30T07:51:48;21.00;;;19.20;;
23682;SDS011;24897;53.514;10.482;2022-08-30T07:54:33;20.10;;;18.30;;
23682;SDS011;24897;53.514;10.482;2022-08-30T07:57:17;19.90;;;18.20;;
23682;SDS011;24897;53.514;10.482;2022-08-30T08:00:03;19.57;;;17.97;;
23682;SDS011;24897;53.514;10.482;2022-08-30T08:02:47;19.10;;;17.40;;
23682;SDS011;24897;53.514;10.482;2022-08-30T08:05:35;19.23;;;17.53;;
23682;SDS011;24897;53.514;10.482;2022-08-30T08:08:23;19.53;;;17.90;;
23682;SDS011;24897;53.514;10.482;2022-08-30T08:11:11;19.03;;;17.43;;
23682;SDS011;24897;53.514;10.482;2022-08-30T08:14:07;18.77;;;17.27;;
23682;SDS011;24897;53.514;10.482;2022-08-30T08:16:52;18.53;;;16.83;;
23682;SDS011;24897;53.514;10.482;2022-08-30T08:19:36;18.93;;;17.40;;
23682;SDS011;24897;53.514;10.482;2022-08-30T08:22:20;19.10;;;17.40;;
23682;SDS011;24897;53.514;10.482;2022-08-30T08:25:04;19.33;;;17.63;;
23682;SDS011;24897;53.514;10.482;2022-08-30T08:27:49;19.50;;;17.80;;
23682;SDS011;24897;53.514;10.482;2022-08-30T08:30:35;20.57;;;18.97;;
23682;SDS011;24897;53.514;10.482;2022-08-30T08:33:21;20.37;;;18.67;;
23682;SDS011;24897;53.514;10.482;2022-08-30T08:36:06;21.13;;;19.43;;
23682;SDS011;24897;53.514;10.482;2022-08-30T08:38:50;21.60;;;19.70;;
23682;SDS011;24897;53.514;10.482;2022-08-30T08:45:02;20.73;;;19.00;;
23682;SDS011;24897;53.514;10.482;2022-08-30T08:48:30;20.33;;;18.60;;
23682;SDS011;24897;53.514;10.482;2022-08-30T08:51:10;19.87;;;18.27;;
23682;SDS011;24897;53.514;10.482;2022-08-30T08:54:20;19.37;;;17.77;;
23682;SDS011;24897;53.514;10.482;2022-08-30T08:57:10;18.87;;;17.17;;
23682;SDS011;24897;53.514;10.482;2022-08-30T08:59:54;19.07;;;17.47;;
23682;SDS011;24897;53.514;10.482;2022-08-30T09:02:59;18.43;;;17.03;;
23682;SDS011;24897;53.514;10.482;2022-08-30T09:05:45;18.20;;;16.70;;
23682;SDS011;24897;53.514;10.482;2022-08-30T09:08:31;18.10;;;16.60;;
23682;SDS011;24897;53.514;10.482;2022-08-30T09:11:22;17.83;;;16.40;;
23682;SDS011;24897;53.514;10.482;2022-08-30T09:14:12;17.50;;;16.10;;
23682;SDS011;24897;53.514;10.482;2022-08-30T09:22:40;16.90;;;15.60;;
23682;SDS011;24897;53.514;10.482;2022-08-30T09:25:30;16.90;;;15.40;;
23682;SDS011;24897;53.514;10.482;2022-08-30T09:28:25;16.27;;;15.07;;
23682;SDS011;24897;53.514;10.482;2022-08-30T09:31:21;15.97;;;14.77;;
23682;SDS011;24897;53.514;10.482;2022-08-30T09:34:14;16.17;;;14.87;;
23682;SDS011;24897;53.514;10.482;2022-08-30T09:37:01;16.17;;;14.88;;
23682;SDS011;24897;53.514;10.482;2022-08-30T09:39:45;15.70;;;14.50;;
23682;SDS011;24897;53.514;10.482;2022-08-30T09:42:30;15.90;;;14.60;;
23682;SDS011;24897;53.514;10.482;2022-08-30T09:45:18;16.47;;;15.07;;
23682;SDS011;24897;53.514;10.482;2022-08-30T09:54:30;17.57;;;16.17;;
23682;SDS011;24897;53.514;10.482;2022-08-30T09:57:34;18.23;;;16.80;;
23682;SDS011;24897;53.514;10.482;2022-08-30T10:00:40;17.60;;;16.20;;
23682;SDS011;24897;53.514;10.482;2022-08-30T10:03:33;18.10;;;16.60;;
23682;SDS011;24897;53.514;10.482;2022-08-30T10:16:00;18.97;;;17.27;;
23682;SDS011;24897;53.514;10.482;2022-08-30T10:19:02;17.90;;;16.40;;
23682;SDS011;24897;53.514;10.482;2022-08-30T10:22:08;18.23;;;16.60;;
23682;SDS011;24897;53.514;10.482;2022-08-30T10:25:10;18.60;;;17.10;;
23682;SDS011;24897;53.514;10.482;2022-08-30T10:28:10;17.63;;;16.23;;
23682;SDS011;24897;53.514;10.482;2022-08-30T10:31:10;17.70;;;16.30;;
23682;SDS011;24897;53.514;10.482;2022-08-30T10:34:02;18.27;;;16.77;;
23682;SDS011;24897;53.514;10.482;2022-08-30T10:37:15;18.60;;;17.00;;
23682;SDS011;24897;53.514;10.482;2022-08-30T10:40:08;18.03;;;16.47;;
23682;SDS011;24897;53.514;10.482;2022-08-30T10:49:55;18.53;;;16.83;;
23682;SDS011;24897;53.514;10.482;2022-08-30T10:58:39;18.53;;;17.03;;
23682;SDS011;24897;53.514;10.482;2022-08-30T11:05:37;18.33;;;16.83;;
23682;SDS011;24897;53.514;10.482;2022-08-30T11:08:29;26.80;;;17.90;;
23682;SDS011;24897;53.514;10.482;2022-08-30T11:11:25;18.17;;;16.77;;
23682;SDS011;24897;53.514;10.482;2022-08-30T11:14:32;18.20;;;16.80;;
23682;SDS011;24897;53.514;10.482;2022-08-30T11:17:24;18.27;;;16.63;;
23682;SDS011;24897;53.514;10.482;2022-08-30T11:20:22;17.87;;;16.40;;
23682;SDS011;24897;53.514;10.482;2022-08-30T11:26:11;17.30;;;15.90;;
23682;SDS011;24897;53.514;10.482;2022-08-30T11:29:32;17.30;;;15.90;;
23682;SDS011;24897;53.514;10.482;2022-08-30T11:32:24;17.57;;;16.07;;
23682;SDS011;24897;53.514;10.482;2022-08-30T11:35:42;17.30;;;15.93;;
23682;SDS011;24897;53.514;10.482;2022-08-30T11:41:13;17.30;;;15.80;;
23682;SDS011;24897;53.514;10.482;2022-08-30T11:51:07;17.47;;;16.17;;
23682;SDS011;24897;53.514;10.482;2022-08-30T11:53:47;18.17;;;16.77;;
23682;SDS011;24897;53.514;10.482;2022-08-30T12:03:04;18.73;;;17.07;;
23682;SDS011;24897;53.514;10.482;2022-08-30T12:05:52;18.57;;;17.13;;
23682;SDS011;24897;53.514;10.482;2022-08-30T12:08:57;18.20;;;16.43;;
23682;SDS011;24897;53.514;10.482;2022-08-30T12:14:42;17.03;;;15.43;;
23682;SDS011;24897;53.514;10.482;2022-08-30T12:20:47;19.63;;;15.37;;
23682;SDS011;24897;53.514;10.482;2022-08-30T12:23:38;17.20;;;15.57;;
23682;SDS011;24897;53.514;10.482;2022-08-30T12:26:42;16.50;;;15.20;;
23682;SDS011;24897;53.514;10.482;2022-08-30T12:29:30;16.10;;;14.90;;
23682;SDS011;24897;53.514;10.482;2022-08-30T12:32:15;16.93;;;15.30;;
23682;SDS011;24897;53.514;10.482;2022-08-30T12:35:05;15.60;;;14.20;;
23682;SDS011;24897;53.514;10.482;2022-08-30T12:37:55;17.17;;;15.88;;
23682;SDS011;24897;53.514;10.482;2022-08-30T12:40:52;16.43;;;15.13;;
23682;SDS011;24897;53.514;10.482;2022-08-30T12:43:39;15.80;;;14.52;;
23682;SDS011;24897;53.514;10.482;2022-08-30T12:46:33;15.20;;;14.03;;
23682;SDS011;24897;53.514;10.482;2022-08-30T12:49:18;15.87;;;14.50;;
23682;SDS011;24897;53.514;10.482;2022-08-30T12:52:22;15.47;;;14.13;;
23682;SDS011;24897;53.514;10.482;2022-08-30T12:55:16;17.07;;;15.40;;
23682;SDS011;24897;53.514;10.482;2022-08-30T12:58:07;16.20;;;15.00;;
23682;SDS011;24897;53.514;10.482;2022-08-30T13:01:09;16.20;;;14.93;;
23682;SDS011;24897;53.514;10.482;2022-08-30T13:03:58;15.73;;;14.53;;
23682;SDS011;24897;53.514;10.482;2022-08-30T13:06:57;16.03;;;14.60;;
23682;SDS011;24897;53.514;10.482;2022-08-30T13:09:42;15.23;;;14.03;;
23682;SDS011;24897;53.514;10.482;2022-08-30T13:12:26;15.00;;;13.80;;
23682;SDS011;24897;53.514;10.482;2022-08-30T13:15:26;16.20;;;14.80;;
23682;SDS011;24897;53.514;10.482;2022-08-30T13:18:25;15.83;;;14.63;;
23682;SDS011;24897;53.514;10.482;2022-08-30T13:21:31;15.53;;;14.33;;
23682;SDS011;24897;53.514;10.482;2022-08-30T13:24:16;15.43;;;14.30;;
23682;SDS011;24897;53.514;10.482;2022-08-30T13:27:02;14.95;;;13.63;;
23682;SDS011;24897;53.514;10.482;2022-08-30T13:29:52;15.10;;;13.90;;
23682;SDS011;24897;53.514;10.482;2022-08-30T13:32:36;15.53;;;14.27;;
23682;SDS011;24897;53.514;10.482;2022-08-30T13:35:21;15.32;;;14.15;;
23682;SDS011;24897;53.514;10.482;2022-08-30T13:38:06;15.65;;;14.13;;
23682;SDS011;24897;53.514;10.482;2022-08-30T13:40:51;15.20;;;14.00;;
23682;SDS011;24897;53.514;10.482;2022-08-30T13:43:35;15.20;;;14.00;;
23682;SDS011;24897;53.514;10.482;2022-08-30T13:46:20;15.43;;;14.13;;
23682;SDS011;24897;53.514;10.482;2022-08-30T13:49:08;15.33;;;13.93;;
23682;SDS011;24897;53.514;10.482;2022-08-30T13:51:58;15.33;;;13.90;;
23682;SDS011;24897;53.514;10.482;2022-08-30T13:54:42;14.97;;;13.87;;
23682;SDS011;24897;53.514;10.482;2022-08-30T13:57:27;14.60;;;13.40;;
23682;SDS011;24897;53.514;10.482;2022-08-30T14:00:14;15.10;;;14.00;;
23682;SDS011;24897;53.514;10.482;2022-08-30T14:03:01;14.90;;;13.80;;
23682;SDS011;24897;53.514;10.482;2022-08-30T14:05:45;15.00;;;13.80;;
23682;SDS011;24897;53.514;10.482;2022-08-30T14:08:30;14.70;;;13.50;;
23682;SDS011;24897;53.514;10.482;2022-08-30T14:11:15;15.17;;;13.70;;
23682;SDS011;24897;53.514;10.482;2022-08-30T14:14:02;14.70;;;13.60;;
23682;SDS011;24897;53.514;10.482;2022-08-30T14:16:47;14.87;;;13.67;;
23682;SDS011;24897;53.514;10.482;2022-08-30T14:19:31;14.52;;;13.43;;
23682;SDS011;24897;53.514;10.482;2022-08-30T14:22:15;14.60;;;13.47;;
23682;SDS011;24897;53.514;10.482;2022-08-30T14:25:02;15.13;;;13.68;;
23682;SDS011;24897;53.514;10.482;2022-08-30T14:27:47;14.57;;;13.48;;
23682;SDS011;24897;53.514;10.482;2022-08-30T14:30:31;14.97;;;13.80;;
23682;SDS011;24897;53.514;10.482;2022-08-30T14:33:15;14.80;;;13.50;;
23682;SDS011;24897;53.514;10.482;2022-08-30T14:36:00;15.10;;;13.90;;
23682;SDS011;24897;53.514;10.482;2022-08-30T14:38:45;15.30;;;14.20;;
23682;SDS011;24897;53.514;10.482;2022-08-30T14:41:29;15.10;;;14.00;;
23682;SDS011;24897;53.514;10.482;2022-08-30T14:44:14;14.70;;;13.60;;
23682;SDS011;24897;53.514;10.482;2022-08-30T14:47:00;14.70;;;13.60;;
23682;SDS011;24897;53.514;10.482;2022-08-30T14:49:45;15.10;;;13.90;;
23682;SDS011;24897;53.514;10.482;2022-08-30T14:52:29;14.70;;;13.50;;
23682;SDS011;24897;53.514;10.482;2022-08-30T14:55:14;14.90;;;13.70;;
23682;SDS011;24897;53.514;10.482;2022-08-30T14:57:58;14.60;;;13.50;;
23682;SDS011;24897;53.514;10.482;2022-08-30T15:00:50;14.63;;;13.40;;
23682;SDS011;24897;53.514;10.482;2022-08-30T15:03:35;14.63;;;13.30;;
23682;SDS011;24897;53.514;10.482;2022-08-30T15:06:20;14.80;;;13.60;;
23682;SDS011;24897;53.514;10.482;2022-08-30T15:09:06;14.47;;;13.37;;
23682;SDS011;24897;53.514;10.482;2022-08-30T15:11:55;14.73;;;13.53;;
23682;SDS011;24897;53.514;10.482;2022-08-30T15:14:43;15.10;;;13.90;;
23682;SDS011;24897;53.514;10.482;2022-08-30T15:17:27;15.07;;;13.80;;
23682;SDS011;24897;53.514;10.482;2022-08-30T15:20:12;14.77;;;13.52;;
23682;SDS011;24897;53.514;10.482;2022-08-30T15:22:56;15.10;;;13.80;;
23682;SDS011;24897;53.514;10.482;2022-08-30T15:25:41;14.80;;;13.70;;
23682;SDS011;24897;53.514;10.482;2022-08-30T15:28:25;14.60;;;13.43;;
23682;SDS011;24897;53.514;10.482;2022-08-30T15:31:10;14.87;;;13.57;;
23682;SDS011;24897;53.514;10.482;2022-08-30T15:33:55;15.10;;;13.90;;
23682;SDS011;24897;53.514;10.482;2022-08-30T15:36:41;14.90;;;13.80;;
23682;SDS011;24897;53.514;10.482;2022-08-30T15:39:26;14.40;;;13.20;;
23682;SDS011;24897;53.514;10.482;2022-08-30T15:42:10;14.40;;;13.30;;
23682;SDS011;24897;53.514;10.482;2022-08-30T15:44:54;14.20;;;13.10;;
23682;SDS011;24897;53.514;10.482;2022-08-30T15:47:39;14.53;;;13.53;;
23682;SDS011;24897;53.514;10.482;2022-08-30T15:50:24;14.77;;;13.60;;
23682;SDS011;24897;53.514;10.482;2022-08-30T15:53:09;14.80;;;13.70;;
23682;SDS011;24897;53.514;10.482;2022-08-30T15:55:53;14.83;;;13.73;;
23682;SDS011;24897;53.514;10.482;2022-08-30T15:58:38;14.53;;;13.53;;
23682;SDS011;24897;53.514;10.482;2022-08-30T16:01:23;14.30;;;13.30;;
23682;SDS011;24897;53.514;10.482;2022-08-30T16:04:08;14.30;;;13.30;;
23682;SDS011;24897;53.514;10.482;2022-08-30T16:06:52;14.70;;;13.50;;
23682;SDS011;24897;53.514;10.482;2022-08-30T16:09:37;14.60;;;13.40;;
23682;SDS011;24897;53.514;10.482;2022-08-30T16:12:21;14.23;;;13.23;;
23682;SDS011;24897;53.514;10.482;2022-08-30T16:15:06;13.80;;;12.90;;
23682;SDS011;24897;53.514;10.482;2022-08-30T16:17:50;14.20;;;13.20;;
23682;SDS011;24897;53.514;10.482;2022-08-30T16:20:34;14.60;;;13.60;;
23682;SDS011;24897;53.514;10.482;2022-08-30T16:23:19;14.47;;;13.40;;
23682;SDS011;24897;53.514;10.482;2022-08-30T16:26:03;14.63;;;13.63;;
23682;SDS011;24897;53.514;10.482;2022-08-30T16:28:48;14.33;;;13.33;;
23682;SDS011;24897;53.514;10.482;2022-08-30T16:31:33;15.17;;;13.90;;
23682;SDS011;24897;53.514;10.482;2022-08-30T16:34:18;14.60;;;13.60;;
23682;SDS011;24897;53.514;10.482;2022-08-30T16:37:04;14.63;;;13.63;;
23682;SDS011;24897;53.514;10.482;2022-08-30T16:39:48;14.27;;;13.17;;
23682;SDS011;24897;53.514;10.482;2022-08-30T16:42:32;14.60;;;13.60;;
23682;SDS011;24897;53.514;10.482;2022-08-30T16:45:16;14.40;;;13.40;;
23682;SDS011;24897;53.514;10.482;2022-08-30T16:48:00;14.40;;;13.30;;
23682;SDS011;24897;53.514;10.482;2022-08-30T16:50:45;43.80;;;41.10;;
23682;SDS011;24897;53.514;10.482;2022-08-30T16:53:29;43.13;;;40.43;;
23682;SDS011;24897;53.514;10.482;2022-08-30T16:56:15;41.03;;;38.53;;
23682;SDS011;24897;53.514;10.482;2022-08-30T16:59:02;42.17;;;39.57;;
23682;SDS011;24897;53.514;10.482;2022-08-30T17:01:47;42.47;;;39.87;;
23682;SDS011;24897;53.514;10.482;2022-08-30T17:04:31;41.63;;;39.03;;
23682;SDS011;24897;53.514;10.482;2022-08-30T17:07:16;42.13;;;39.53;;
23682;SDS011;24897;53.514;10.482;2022-08-30T17:10:00;38.13;;;35.83;;
23682;SDS011;24897;53.514;10.482;2022-08-30T17:12:46;41.10;;;38.60;;
23682;SDS011;24897;53.514;10.482;2022-08-30T17:15:31;40.83;;;38.33;;